Time;durP1;ratioP1;P1;durP2;ratioP2;P2;SDS_P1;SDS_P2;PMS_P1;PMS_P2;Temp;Humidity;BMP_temperature;BMP_pressure;BME280_temperature;BME280_humidity;BME280_pressure;Samples;Min_cycle;Max_cycle;Signal;HPM_P1;HPM_P2
2021/11/19 00:04:20;;;;;;;15.27;6.80;;;20.50;63.60;;;;;;5085177;27;20911;-69
2021/11/19 00:06:54;;;;;;;13.02;7.53;;;20.50;62.10;;;;;;5075509;28;20076;-65
2021/11/19 00:09:28;;;;;;;20.98;7.03;;;20.50;63.00;;;;;;5077447;28;20048;-68
2021/11/19 00:12:02;;;;;;;12.95;6.90;;;20.50;63.50;;;;;;5074026;28;20071;-68
2021/11/19 00:14:35;;;;;;;13.23;6.63;;;20.40;63.40;;;;;;5074102;28;20140;-68
2021/11/19 00:17:07;;;;;;;12.38;6.63;;;20.40;63.90;;;;;;5078899;28;20044;-69
2021/11/19 00:19:38;;;;;;;13.40;7.07;;;20.40;64.10;;;;;;5070486;28;20054;-67
2021/11/19 00:22:07;;;;;;;14.63;7.10;;;20.30;64.60;;;;;;5062640;28;20374;-69
2021/11/19 00:24:34;;;;;;;13.40;6.60;;;20.30;65.00;;;;;;5073145;28;20040;-69
2021/11/19 00:27:01;;;;;;;13.20;6.40;;;20.30;65.30;;;;;;5069690;28;20049;-66
2021/11/19 00:29:29;;;;;;;12.75;6.30;;;20.30;65.30;;;;;;5056374;28;20895;-70
2021/11/19 00:31:56;;;;;;;11.10;6.65;;;20.30;65.40;;;;;;5059203;28;20562;-68
2021/11/19 00:34:23;;;;;;;12.38;6.05;;;20.30;66.40;;;;;;5056882;28;20056;-65
2021/11/19 00:36:55;;;;;;;13.48;6.32;;;20.30;65.90;;;;;;5057633;28;20052;-67
2021/11/19 00:39:23;;;;;;;9.75;5.93;;;20.30;65.90;;;;;;5058500;28;20082;-67
2021/11/19 00:41:51;;;;;;;12.98;6.55;;;20.40;65.80;;;;;;5060307;28;20067;-66
2021/11/19 00:44:18;;;;;;;11.15;6.10;;;20.30;65.60;;;;;;5051308;28;20052;-67
2021/11/19 00:46:46;;;;;;;12.93;6.70;;;20.30;66.20;;;;;;5053486;28;20047;-68
2021/11/19 00:49:14;;;;;;;13.40;6.47;;;20.20;67.40;;;;;;5058945;28;20033;-66
2021/11/19 00:51:44;;;;;;;11.73;6.68;;;20.20;67.80;;;;;;5056178;28;20052;-68
2021/11/19 00:54:14;;;;;;;11.20;5.65;;;20.10;67.80;;;;;;5056427;28;20048;-68
2021/11/19 00:56:43;;;;;;;10.90;5.93;;;20.00;67.50;;;;;;5056832;28;20048;-68
2021/11/19 00:59:12;;;;;;;12.15;5.85;;;20.00;66.00;;;;;;5056169;28;20143;-66
2021/11/19 01:01:42;;;;;;;10.88;5.95;;;19.90;66.10;;;;;;5052287;28;20615;-65
2021/11/19 01:04:10;;;;;;;9.25;4.70;;;19.90;65.80;;;;;;5056168;28;20052;-65
2021/11/19 01:06:38;;;;;;;8.45;4.82;;;19.80;65.50;;;;;;5053905;28;20044;-69
2021/11/19 01:09:15;;;;;;;9.68;5.32;;;19.80;65.30;;;;;;5057720;28;20056;-68
2021/11/19 01:11:44;;;;;;;8.07;4.85;;;19.80;64.90;;;;;;5055671;28;20059;-67
2021/11/19 01:14:17;;;;;;;9.70;5.10;;;19.70;64.60;;;;;;5045803;28;20057;-69
2021/11/19 01:16:49;;;;;;;6.75;4.55;;;19.80;64.30;;;;;;5044327;28;20143;-69
2021/11/19 01:19:22;;;;;;;7.80;4.25;;;19.70;64.00;;;;;;5057515;28;20065;-69
2021/11/19 01:21:53;;;;;;;11.50;5.28;;;19.70;63.60;;;;;;5043458;28;20599;-70
2021/11/19 01:24:25;;;;;;;8.32;4.70;;;19.70;63.70;;;;;;5040523;28;20078;-70
2021/11/19 01:26:55;;;;;;;9.88;4.35;;;19.70;63.60;;;;;;5058777;28;20048;-67
2021/11/19 01:29:23;;;;;;;8.73;4.30;;;19.60;63.40;;;;;;5037852;28;20056;-67
2021/11/19 01:31:57;;;;;;;7.63;4.18;;;19.60;63.10;;;;;;5040872;28;20049;-69
2021/11/19 01:34:45;;;;;;;9.23;4.32;;;19.60;63.00;;;;;;5052619;28;20072;-71
2021/11/19 01:37:22;;;;;;;9.13;4.20;;;19.60;63.00;;;;;;5043874;28;20041;-68
2021/11/19 01:40:08;;;;;;;7.43;4.18;;;19.60;62.90;;;;;;5033915;28;20063;-66
2021/11/19 01:43:12;;;;;;;9.95;4.05;;;19.60;62.80;;;;;;5040760;28;20045;-69
2021/11/19 01:45:43;;;;;;;9.40;4.40;;;19.60;62.70;;;;;;5037938;28;20053;-69
2021/11/19 01:48:13;;;;;;;9.57;4.13;;;19.60;62.60;;;;;;5041002;28;20075;-69
2021/11/19 01:50:51;;;;;;;9.55;5.03;;;19.50;62.50;;;;;;5044729;28;20052;-68
2021/11/19 01:53:23;;;;;;;8.52;4.47;;;19.50;62.30;;;;;;5042504;28;20108;-65
2021/11/19 01:55:58;;;;;;;8.43;4.63;;;19.50;62.50;;;;;;5050897;28;20076;-69
2021/11/19 01:58:28;;;;;;;9.10;4.80;;;19.50;62.30;;;;;;5044368;28;20049;-68
2021/11/19 02:01:03;;;;;;;9.13;4.38;;;19.50;62.20;;;;;;5039826;28;20032;-67
2021/11/19 02:03:35;;;;;;;10.23;4.63;;;19.50;62.10;;;;;;5054792;28;20041;-68
2021/11/19 02:06:06;;;;;;;9.35;4.75;;;19.50;62.10;;;;;;5042744;28;20513;-68
2021/11/19 02:08:37;;;;;;;10.52;5.15;;;19.50;62.00;;;;;;5042654;28;20071;-67
2021/11/19 02:11:23;;;;;;;9.82;4.63;;;19.50;62.10;;;;;;5053863;28;20045;-66
2021/11/19 02:13:57;;;;;;;9.75;4.82;;;19.50;61.90;;;;;;5043916;28;20148;-69
2021/11/19 02:16:28;;;;;;;10.63;5.10;;;19.40;61.80;;;;;;5040976;28;20044;-69
2021/11/19 02:19:03;;;;;;;10.20;5.38;;;19.40;61.60;;;;;;5038471;28;21262;-69
2021/11/19 02:21:39;;;;;;;7.70;5.05;;;19.40;61.60;;;;;;5035826;28;20384;-67
2021/11/19 02:24:12;;;;;;;7.93;4.47;;;19.40;61.60;;;;;;5059003;28;20044;-64
2021/11/19 02:26:48;;;;;;;8.63;4.75;;;19.40;61.50;;;;;;5041062;28;20052;-67
2021/11/19 02:29:16;;;;;;;10.10;4.78;;;19.40;61.40;;;;;;5039541;28;20094;-65
2021/11/19 02:31:55;;;;;;;10.65;4.90;;;19.30;61.40;;;;;;5054285;28;20049;-69
2021/11/19 02:34:24;;;;;;;9.02;4.78;;;19.40;61.20;;;;;;5066937;28;20099;-68
2021/11/19 02:36:56;;;;;;;8.57;4.65;;;19.40;61.20;;;;;;5041037;28;20041;-67
2021/11/19 02:39:27;;;;;;;9.48;5.03;;;19.40;61.10;;;;;;5047818;28;20036;-68
2021/11/19 02:42:00;;;;;;;10.40;4.55;;;19.30;61.10;;;;;;5030424;28;20060;-67
2021/11/19 02:44:34;;;;;;;8.85;4.90;;;19.40;61.20;;;;;;5046359;28;20102;-68
2021/11/19 02:47:09;;;;;;;8.75;4.65;;;19.40;61.10;;;;;;5039046;28;20071;-70
2021/11/19 02:49:38;;;;;;;8.25;4.60;;;19.30;60.90;;;;;;5056153;28;20083;-68
2021/11/19 02:52:07;;;;;;;10.13;4.38;;;19.30;61.00;;;;;;5041898;28;20199;-68
2021/11/19 02:54:36;;;;;;;;;;;19.30;60.90;;;;;;5039873;28;20040;-67
2021/11/19 02:57:06;;;;;;;6.95;4.07;;;19.30;60.80;;;;;;5042182;28;19927;-68
2021/11/19 02:59:34;;;;;;;8.68;4.20;;;19.30;60.90;;;;;;5037731;28;20092;-67
2021/11/19 03:02:04;;;;;;;7.10;4.15;;;19.30;60.90;;;;;;5038856;28;20216;-67
2021/11/19 03:04:33;;;;;;;7.90;4.18;;;19.30;60.80;;;;;;5042830;28;20064;-67
2021/11/19 03:07:01;;;;;;;6.20;3.63;;;19.30;60.70;;;;;;5044370;28;20045;-67
2021/11/19 03:09:38;;;;;;;8.27;4.47;;;19.30;60.90;;;;;;5039832;28;20123;-68
2021/11/19 03:12:08;;;;;;;;;;;19.30;60.80;;;;;;5039229;28;20842;-69
2021/11/19 03:14:36;;;;;;;12.02;4.18;;;19.30;60.70;;;;;;5034392;28;19960;-67
2021/11/19 03:17:04;;;;;;;7.95;3.80;;;19.30;60.40;;;;;;5043426;28;20041;-69
2021/11/19 03:19:34;;;;;;;9.75;4.40;;;19.30;60.40;;;;;;5041945;28;20123;-68
2021/11/19 03:22:02;;;;;;;7.85;3.80;;;19.30;60.40;;;;;;5044904;28;20061;-69
2021/11/19 03:24:29;;;;;;;7.72;4.55;;;19.30;60.60;;;;;;5053072;28;20045;-68
2021/11/19 03:26:56;;;;;;;7.50;3.97;;;19.30;60.50;;;;;;5042118;28;20518;-67
2021/11/19 03:29:26;;;;;;;9.63;4.40;;;19.30;60.40;;;;;;5042987;28;20506;-69
2021/11/19 03:31:54;;;;;;;7.30;4.40;;;19.30;60.40;;;;;;5035867;28;20053;-67
2021/11/19 03:34:22;;;;;;;8.35;4.15;;;19.30;60.30;;;;;;5041533;28;20467;-69
2021/11/19 03:36:52;;;;;;;8.32;4.60;;;19.30;60.30;;;;;;5042950;28;20174;-65
2021/11/19 03:39:22;;;;;;;8.60;4.50;;;19.30;60.40;;;;;;5041971;28;20070;-68
2021/11/19 03:41:50;;;;;;;6.73;3.70;;;19.30;60.20;;;;;;5040882;28;20072;-66
2021/11/19 03:44:20;;;;;;;7.75;3.95;;;19.30;60.20;;;;;;5034733;28;20045;-65
2021/11/19 03:46:53;;;;;;;9.43;4.50;;;19.30;60.10;;;;;;5055181;28;20049;-69
2021/11/19 03:49:21;;;;;;;9.48;4.38;;;19.30;60.10;;;;;;5056160;28;20048;-70
2021/11/19 03:51:51;;;;;;;7.97;3.83;;;19.30;60.00;;;;;;5041360;28;20079;-70
2021/11/19 03:54:21;;;;;;;7.82;3.60;;;19.30;60.00;;;;;;5041909;28;20071;-67
2021/11/19 03:56:48;;;;;;;;;;;19.30;60.00;;;;;;5038627;28;20064;-66
2021/11/19 03:59:15;;;;;;;6.93;3.92;;;19.30;59.90;;;;;;5042232;28;19999;-70
2021/11/19 04:01:46;;;;;;;7.32;4.07;;;19.30;59.90;;;;;;5036371;28;20160;-68
2021/11/19 04:04:16;;;;;;;7.43;3.67;;;19.30;59.90;;;;;;5043524;28;20497;-66
2021/11/19 04:06:44;;;;;;;8.23;3.58;;;19.30;59.80;;;;;;5034447;28;20063;-65
2021/11/19 04:09:11;;;;;;;5.97;3.15;;;19.30;59.80;;;;;;5034785;28;20045;-72
2021/11/19 04:11:39;;;;;;;6.75;3.42;;;19.30;59.80;;;;;;5042193;28;20472;-68
2021/11/19 04:14:06;;;;;;;7.78;3.50;;;19.20;59.80;;;;;;5041679;28;20466;-69
2021/11/19 04:16:36;;;;;;;5.38;3.10;;;19.30;59.70;;;;;;5041116;28;20041;-67
2021/11/19 04:19:06;;;;;;;6.65;3.10;;;19.20;59.70;;;;;;5043893;28;20041;-68
2021/11/19 04:21:35;;;;;;;;;;;19.20;59.80;;;;;;5046126;28;20695;-68
2021/11/19 04:24:03;;;;;;;6.00;3.05;;;19.30;59.80;;;;;;5040629;28;19978;-69
2021/11/19 04:26:34;;;;;;;8.10;3.40;;;19.20;59.60;;;;;;5050031;28;20534;-65
2021/11/19 04:29:02;;;;;;;7.50;3.80;;;19.20;59.70;;;;;;5041190;28;20585;-70
2021/11/19 04:31:45;;;;;;;6.35;3.42;;;19.20;59.60;;;;;;5046276;28;20049;-69
2021/11/19 04:34:13;;;;;;;6.13;3.20;;;19.20;59.60;;;;;;5041460;28;20060;-69
2021/11/19 04:36:42;;;;;;;7.13;3.85;;;19.20;59.60;;;;;;5063025;28;20687;-59
2021/11/19 04:39:11;;;;;;;9.52;4.03;;;19.40;59.40;;;;;;5047919;28;20049;-59
2021/11/19 04:41:40;;;;;;;10.83;4.20;;;19.60;59.10;;;;;;5052351;28;20107;-59
2021/11/19 04:44:07;;;;;;;7.82;4.03;;;19.80;58.30;;;;;;5038926;28;20122;-60
2021/11/19 04:46:41;;;;;;;6.95;3.45;;;20.10;57.50;;;;;;5048296;28;20111;-60
2021/11/19 04:49:08;;;;;;;8.10;3.78;;;20.30;56.70;;;;;;5047299;28;20132;-59
2021/11/19 04:51:38;;;;;;;8.85;3.90;;;20.50;56.10;;;;;;5035668;28;20040;-59
2021/11/19 04:54:07;;;;;;;8.75;4.60;;;20.70;55.70;;;;;;5049223;28;20324;-61
2021/11/19 04:56:35;;;;;;;8.00;4.30;;;20.60;55.70;;;;;;5054738;28;20048;-61
2021/11/19 04:59:03;;;;;;;9.10;4.75;;;20.60;55.90;;;;;;5049513;28;20055;-63
2021/11/19 05:01:37;;;;;;;10.30;5.30;;;20.30;56.20;;;;;;5048569;28;20048;-63
2021/11/19 05:04:21;;;;;;;7.43;4.00;;;20.10;56.80;;;;;;5041028;28;20067;-63
2021/11/19 05:06:49;;;;;;;8.60;3.88;;;19.80;57.20;;;;;;5043885;28;20076;-61
2021/11/19 05:09:18;;;;;;;7.65;4.03;;;19.70;57.60;;;;;;5043879;28;20378;-62
2021/11/19 05:11:50;;;;;;;8.10;4.47;;;19.60;57.90;;;;;;5038300;28;20059;-61
2021/11/19 05:14:20;;;;;;;6.78;3.58;;;19.50;58.20;;;;;;5042498;28;20198;-62
2021/11/19 05:16:47;;;;;;;7.40;3.85;;;19.40;58.50;;;;;;5038821;28;20040;-62
2021/11/19 05:19:14;;;;;;;7.15;3.95;;;19.40;58.70;;;;;;5043415;28;20052;-63
2021/11/19 05:21:41;;;;;;;8.00;3.83;;;19.30;58.80;;;;;;5037766;28;20059;-63
2021/11/19 05:24:10;;;;;;;6.90;4.03;;;19.30;58.90;;;;;;5050503;28;20052;-63
2021/11/19 05:26:41;;;;;;;7.93;4.00;;;19.30;59.00;;;;;;5067269;28;20057;-63
2021/11/19 05:29:09;;;;;;;7.05;3.80;;;19.20;59.10;;;;;;5059595;28;20049;-62
2021/11/19 05:31:37;;;;;;;7.75;4.22;;;19.20;59.20;;;;;;5043934;28;20053;-63
2021/11/19 05:34:05;;;;;;;8.82;3.95;;;19.20;59.20;;;;;;5044060;28;20045;-63
2021/11/19 05:36:32;;;;;;;7.63;3.80;;;19.10;59.30;;;;;;5049277;28;20078;-63
2021/11/19 05:39:01;;;;;;;7.95;3.78;;;19.10;59.50;;;;;;5050866;28;20064;-62
2021/11/19 05:41:31;;;;;;;7.32;3.75;;;19.20;59.50;;;;;;5050416;28;20044;-62
2021/11/19 05:44:00;;;;;;;8.02;3.88;;;19.10;59.50;;;;;;5040475;28;20084;-63
2021/11/19 05:46:46;;;;;;;7.35;4.13;;;19.10;59.60;;;;;;5045240;28;20516;-62
2021/11/19 05:49:16;;;;;;;;;;;19.10;59.60;;;;;;5054195;28;20049;-61
2021/11/19 05:51:47;;;;;;;8.85;3.67;;;19.10;59.60;;;;;;5042911;28;20391;-61
2021/11/19 05:54:16;;;;;;;6.97;4.32;;;19.10;59.60;;;;;;5064156;28;20055;-61
2021/11/19 05:56:44;;;;;;;8.70;4.30;;;19.10;59.60;;;;;;5046928;28;20052;-63
2021/11/19 05:59:13;;;;;;;8.40;4.72;;;19.10;59.60;;;;;;5038773;28;20140;-62
2021/11/19 06:02:08;;;;;;;7.60;4.20;;;19.10;59.70;;;;;;5043350;28;20052;-63
2021/11/19 06:05:11;;;;;;;8.05;4.70;;;19.00;59.70;;;;;;5059948;28;20049;-62
2021/11/19 06:07:45;;;;;;;9.07;4.72;;;19.00;59.70;;;;;;5038807;28;20128;-62
2021/11/19 06:10:16;;;;;;;8.35;4.88;;;19.00;59.80;;;;;;5045445;28;20045;-62
2021/11/19 06:12:47;;;;;;;9.95;5.45;;;19.00;59.80;;;;;;5060290;28;20357;-63
2021/11/19 06:15:18;;;;;;;8.50;4.63;;;19.00;59.70;;;;;;5045842;28;20044;-62
2021/11/19 06:17:49;;;;;;;8.25;5.65;;;19.00;59.80;;;;;;5044752;28;20047;-65
2021/11/19 06:20:19;;;;;;;9.60;4.72;;;19.00;59.70;;;;;;5043855;28;20059;-63
2021/11/19 06:22:52;;;;;;;8.90;4.78;;;19.00;59.80;;;;;;5044030;28;20071;-62
2021/11/19 06:25:23;;;;;;;9.27;5.00;;;19.00;59.80;;;;;;5045034;28;20147;-61
2021/11/19 06:27:53;;;;;;;7.80;4.65;;;19.00;59.80;;;;;;5043431;28;20060;-63
2021/11/19 06:30:23;;;;;;;9.95;5.03;;;19.00;59.80;;;;;;5042101;28;20406;-63
2021/11/19 06:32:51;;;;;;;9.05;4.82;;;19.00;59.80;;;;;;5050122;28;20040;-60
2021/11/19 06:35:18;;;;;;;8.75;4.88;;;18.90;59.80;;;;;;5045737;28;20061;-62
2021/11/19 06:37:47;;;;;;;8.65;4.53;;;19.00;59.80;;;;;;5061767;28;20060;-61
2021/11/19 06:40:31;;;;;;;7.75;4.68;;;19.00;59.90;;;;;;5042931;28;20167;-62
2021/11/19 06:43:17;;;;;;;7.63;4.40;;;18.90;59.90;;;;;;5042797;28;20193;-62
2021/11/19 06:46:10;;;;;;;7.03;4.10;;;18.90;59.90;;;;;;5033404;28;20787;-63
2021/11/19 06:48:55;;;;;;;6.75;4.18;;;18.90;59.90;;;;;;5036998;28;20041;-63
2021/11/19 06:51:41;;;;;;;11.93;5.18;;;18.90;59.90;;;;;;5044864;28;20052;-63
2021/11/19 06:54:28;;;;;;;10.88;5.68;;;18.90;59.90;;;;;;5019148;28;20052;-63
2021/11/19 06:56:56;;;;;;;10.07;4.97;;;18.90;59.90;;;;;;5043620;28;20244;-62
2021/11/19 06:59:39;;;;;;;9.75;4.80;;;18.90;60.00;;;;;;5038764;28;20127;-61
2021/11/19 07:02:10;;;;;;;10.57;5.18;;;18.90;59.90;;;;;;5042792;28;20465;-63
2021/11/19 07:04:37;;;;;;;8.65;4.80;;;18.90;60.00;;;;;;5043660;28;20040;-61
2021/11/19 07:07:07;;;;;;;8.32;4.78;;;18.90;60.00;;;;;;5040742;28;20707;-63
2021/11/19 07:09:34;;;;;;;;;;;18.90;59.90;;;;;;5044396;28;20422;-62
2021/11/19 07:12:01;;;;;;;7.57;4.32;;;18.90;60.00;;;;;;5042167;28;20011;-62
2021/11/19 07:14:35;;;;;;;8.73;4.82;;;18.90;60.00;;;;;;5060097;28;20122;-65
2021/11/19 07:17:05;;;;;;;7.20;4.35;;;18.90;60.00;;;;;;5042808;28;20056;-64
2021/11/19 07:19:38;;;;;;;6.78;4.28;;;18.90;60.00;;;;;;5039502;28;20047;-62
2021/11/19 07:22:05;;;;;;;7.35;3.88;;;18.90;60.00;;;;;;5036548;28;20144;-63
2021/11/19 07:24:35;;;;;;;6.68;4.00;;;18.90;60.00;;;;;;5036901;28;20045;-61
2021/11/19 07:27:11;;;;;;;6.78;4.07;;;18.90;60.10;;;;;;5057177;28;20040;-63
2021/11/19 07:29:39;;;;;;;;;;;18.90;60.00;;;;;;5057887;28;20072;-62
2021/11/19 07:32:24;;;;;;;7.13;4.00;;;18.90;60.10;;;;;;5044762;28;19927;-61
2021/11/19 07:35:14;;;;;;;8.45;3.55;;;18.90;60.00;;;;;;5042232;28;20057;-64
2021/11/19 07:37:59;;;;;;;7.32;3.95;;;18.90;60.10;;;;;;5045618;28;20162;-60
2021/11/19 07:40:40;;;;;;;8.25;4.20;;;18.80;60.10;;;;;;5045079;28;20119;-62
2021/11/19 07:43:17;;;;;;;;;;;18.80;60.20;;;;;;5039922;28;20389;-61
2021/11/19 07:46:05;;;;;;;5.78;3.47;;;18.80;60.10;;;;;;5034378;28;19931;-63
2021/11/19 07:48:43;;;;;;;7.97;3.90;;;18.80;60.10;;;;;;5043712;28;20081;-62
2021/11/19 07:51:14;;;;;;;8.45;3.42;;;18.80;60.10;;;;;;5045526;28;20057;-63
2021/11/19 07:53:41;;;;;;;6.43;3.80;;;18.80;60.10;;;;;;5042979;28;20070;-63
2021/11/19 07:56:10;;;;;;;7.25;3.88;;;18.80;60.20;;;;;;5040189;28;20068;-63
2021/11/19 07:58:38;;;;;;;6.05;3.40;;;18.80;60.20;;;;;;5054141;28;20049;-62
2021/11/19 08:01:06;;;;;;;5.72;3.28;;;18.80;60.20;;;;;;5036166;28;20044;-63
2021/11/19 08:03:35;;;;;;;6.20;3.53;;;18.80;60.20;;;;;;5041900;28;20482;-63
2021/11/19 08:06:07;;;;;;;5.40;3.15;;;18.80;60.20;;;;;;5042605;28;20056;-65
2021/11/19 08:08:37;;;;;;;5.47;3.22;;;18.80;60.30;;;;;;5052784;28;20375;-63
2021/11/19 08:11:17;;;;;;;5.38;2.80;;;18.80;60.30;;;;;;5041605;28;20131;-63
2021/11/19 08:13:45;;;;;;;5.82;2.50;;;18.80;60.20;;;;;;5058203;28;20048;-64
2021/11/19 08:16:14;;;;;;;6.00;3.22;;;18.80;60.30;;;;;;5059984;28;20144;-64
2021/11/19 08:19:03;;;;;;;4.47;2.63;;;18.80;60.20;;;;;;5043791;28;20477;-61
2021/11/19 08:21:30;;;;;;;6.53;3.28;;;18.80;60.20;;;;;;5043564;28;20163;-63
2021/11/19 08:24:06;;;;;;;5.65;2.95;;;18.80;60.30;;;;;;5045279;28;20064;-62
2021/11/19 08:26:42;;;;;;;5.53;2.90;;;18.80;60.30;;;;;;5046668;28;20052;-64
2021/11/19 08:29:12;;;;;;;6.45;2.97;;;18.80;60.20;;;;;;5045388;28;20171;-62
2021/11/19 08:31:40;;;;;;;5.15;2.55;;;18.80;60.20;;;;;;5047462;28;20118;-64
2021/11/19 08:34:07;;;;;;;5.35;2.83;;;18.80;60.20;;;;;;5045696;28;20047;-63
2021/11/19 08:36:34;;;;;;;5.90;2.90;;;18.80;60.20;;;;;;5047714;28;20037;-64
2021/11/19 08:39:06;;;;;;;4.95;2.83;;;18.80;60.20;;;;;;5031635;28;20423;-63
2021/11/19 08:41:34;;;;;;;6.82;3.00;;;18.80;60.20;;;;;;5042009;28;20486;-61
2021/11/19 08:44:01;;;;;;;5.60;2.90;;;18.80;60.20;;;;;;5047546;28;20049;-63
2021/11/19 08:46:37;;;;;;;5.93;3.17;;;18.80;60.20;;;;;;5049209;28;20040;-62
2021/11/19 08:49:08;;;;;;;5.53;3.33;;;18.70;60.20;;;;;;5041304;28;20052;-63
2021/11/19 08:51:36;;;;;;;6.80;3.45;;;18.70;60.20;;;;;;5044896;28;20052;-63
2021/11/19 08:54:06;;;;;;;6.03;3.03;;;18.80;60.20;;;;;;5044132;28;20052;-63
2021/11/19 08:56:35;;;;;;;6.05;3.30;;;18.80;60.20;;;;;;5043312;28;20573;-63
2021/11/19 08:59:03;;;;;;;7.28;3.58;;;18.70;60.20;;;;;;5043562;28;20037;-62
2021/11/19 09:01:32;;;;;;;5.95;3.15;;;18.80;60.20;;;;;;5045711;28;20127;-62
2021/11/19 09:03:59;;;;;;;4.32;2.70;;;18.70;60.20;;;;;;5045310;28;20142;-62
2021/11/19 09:06:26;;;;;;;5.20;2.97;;;18.80;60.20;;;;;;5043296;28;20041;-61
2021/11/19 09:08:53;;;;;;;6.97;3.53;;;18.70;60.10;;;;;;5048184;28;20151;-62
2021/11/19 09:11:24;;;;;;;6.57;3.35;;;18.70;60.20;;;;;;5044752;28;20497;-62
2021/11/19 09:13:56;;;;;;;5.35;2.65;;;18.70;60.10;;;;;;5044354;28;20068;-61
2021/11/19 09:16:29;;;;;;;5.18;2.90;;;18.70;60.10;;;;;;5048692;28;20056;-62
2021/11/19 09:19:09;;;;;;;4.43;2.28;;;18.70;60.10;;;;;;5045777;28;20423;-62
2021/11/19 09:21:40;;;;;;;4.82;2.60;;;18.70;60.10;;;;;;5047666;28;20521;-63
2021/11/19 09:24:09;;;;;;;5.05;2.78;;;18.70;60.10;;;;;;5048146;28;20063;-62
2021/11/19 09:26:40;;;;;;;7.20;2.95;;;18.70;60.10;;;;;;5043952;28;20479;-62
2021/11/19 09:29:11;;;;;;;7.65;4.25;;;18.70;60.00;;;;;;5045684;28;20045;-63
2021/11/19 09:31:39;;;;;;;5.53;2.80;;;18.70;60.00;;;;;;5048005;28;20060;-63
2021/11/19 09:34:08;;;;;;;6.70;3.10;;;18.70;60.00;;;;;;5040010;28;20075;-64
2021/11/19 09:36:36;;;;;;;6.47;3.10;;;18.70;60.00;;;;;;5042978;28;20486;-63
2021/11/19 09:39:04;;;;;;;6.43;3.20;;;18.70;60.10;;;;;;5044469;28;20103;-62
2021/11/19 09:41:45;;;;;;;5.93;2.80;;;18.70;60.10;;;;;;5043711;28;20049;-62
2021/11/19 09:44:37;;;;;;;6.97;3.33;;;18.70;60.10;;;;;;5044308;28;20049;-62
2021/11/19 09:47:46;;;;;;;5.75;2.75;;;18.70;59.90;;;;;;5045587;28;20045;-62
2021/11/19 09:50:52;;;;;;;6.70;2.97;;;18.70;60.00;;;;;;5007027;28;20441;-62
2021/11/19 09:53:56;;;;;;;5.25;3.03;;;18.70;60.00;;;;;;5042428;28;20037;-63
2021/11/19 09:56:45;;;;;;;6.18;2.85;;;18.70;60.00;;;;;;5042088;28;20405;-62
2021/11/19 09:59:22;;;;;;;5.20;2.63;;;18.70;60.00;;;;;;5035265;28;20046;-61
2021/11/19 10:02:11;;;;;;;5.45;2.78;;;18.70;60.00;;;;;;5040665;28;20135;-64
2021/11/19 10:05:11;;;;;;;5.50;2.78;;;18.70;60.00;;;;;;5046677;28;20048;-61
2021/11/19 10:07:49;;;;;;;4.90;2.78;;;18.70;60.00;;;;;;5041319;28;20044;-61
2021/11/19 10:10:38;;;;;;;5.22;2.90;;;18.70;60.10;;;;;;5046423;28;20502;-61
2021/11/19 10:13:11;;;;;;;5.60;2.92;;;18.70;60.00;;;;;;5042034;28;20502;-62
2021/11/19 10:15:49;;;;;;;5.85;3.00;;;18.70;60.10;;;;;;5047250;28;20048;-61
2021/11/19 10:18:22;;;;;;;5.72;2.80;;;18.70;60.10;;;;;;5040007;28;20288;-61
2021/11/19 10:20:52;;;;;;;5.30;2.67;;;18.70;60.10;;;;;;5040218;28;20056;-60
2021/11/19 10:23:21;;;;;;;;;;;18.70;60.10;;;;;;5045554;28;20482;-59
2021/11/19 10:25:54;;;;;;;4.93;2.30;;;18.70;60.10;;;;;;5045126;28;19921;-61
2021/11/19 10:28:25;;;;;;;5.25;3.00;;;18.70;60.10;;;;;;5044965;28;20432;-61
2021/11/19 10:30:54;;;;;;;5.07;2.60;;;18.70;60.10;;;;;;5041762;28;20051;-63
2021/11/19 10:33:24;;;;;;;6.50;3.05;;;18.70;60.10;;;;;;5039626;28;20598;-62
2021/11/19 10:36:02;;;;;;;5.32;2.60;;;18.70;60.20;;;;;;5048045;28;20052;-61
2021/11/19 10:39:10;;;;;;;5.05;2.10;;;18.70;60.10;;;;;;5051072;28;20074;-62
2021/11/19 10:42:13;;;;;;;4.18;1.95;;;18.70;60.00;;;;;;5039237;28;20387;-61
2021/11/19 10:45:24;;;;;;;4.88;2.47;;;18.70;60.10;;;;;;5039429;28;20079;-62
2021/11/19 10:48:25;;;;;;;4.40;2.17;;;18.70;60.10;;;;;;5019323;28;20128;-62
2021/11/19 10:51:16;;;;;;;4.45;2.03;;;18.70;60.10;;;;;;5045701;28;20041;-61
2021/11/19 10:54:13;;;;;;;5.43;2.65;;;18.70;60.10;;;;;;5042511;28;20124;-62
2021/11/19 10:56:49;;;;;;;4.97;2.50;;;18.70;60.00;;;;;;5007299;28;20148;-61
2021/11/19 10:59:31;;;;;;;3.78;2.05;;;18.80;60.00;;;;;;5043728;28;20060;-61
2021/11/19 11:02:02;;;;;;;4.25;2.03;;;18.70;60.20;;;;;;5046749;28;20053;-65
2021/11/19 11:04:52;;;;;;;3.80;1.70;;;18.70;60.10;;;;;;5041394;28;20048;-62
2021/11/19 11:07:23;;;;;;;3.72;1.80;;;18.70;60.00;;;;;;5046805;28;20473;-61
2021/11/19 11:09:52;;;;;;;4.53;2.42;;;18.70;60.10;;;;;;5044708;28;20052;-61
2021/11/19 11:12:30;;;;;;;4.55;2.28;;;18.80;60.20;;;;;;5043130;28;20044;-62
2021/11/19 11:15:24;;;;;;;4.07;1.85;;;18.70;60.10;;;;;;5046574;28;20478;-59
2021/11/19 11:17:59;;;;;;;5.05;2.58;;;18.80;60.10;;;;;;5048522;28;20136;-62
2021/11/19 11:20:29;;;;;;;4.03;2.08;;;18.70;60.20;;;;;;5046071;28;20537;-61
2021/11/19 11:23:01;;;;;;;3.90;1.95;;;18.70;60.20;;;;;;5047286;28;20379;-62
2021/11/19 11:25:33;;;;;;;4.80;2.30;;;18.70;60.10;;;;;;5034759;28;20171;-63
2021/11/19 11:28:11;;;;;;;5.13;2.10;;;18.70;60.20;;;;;;5046065;28;20449;-61
2021/11/19 11:30:54;;;;;;;3.40;1.85;;;18.80;60.10;;;;;;5045432;28;20045;-61
2021/11/19 11:33:25;;;;;;;4.03;1.90;;;18.70;60.00;;;;;;5041471;28;20045;-62
2021/11/19 11:36:05;;;;;;;4.75;2.28;;;18.70;60.10;;;;;;5040320;28;20962;-62
2021/11/19 11:38:52;;;;;;;4.10;2.08;;;18.70;60.10;;;;;;5043157;28;20413;-61
2021/11/19 11:41:34;;;;;;;4.07;2.00;;;18.70;60.10;;;;;;5045398;28;20531;-62
2021/11/19 11:44:11;;;;;;;4.10;2.05;;;18.70;60.10;;;;;;5041658;28;20045;-63
2021/11/19 11:46:53;;;;;;;4.50;1.85;;;18.70;60.10;;;;;;5043521;28;20053;-63
2021/11/19 11:49:41;;;;;;;4.50;2.35;;;18.70;60.10;;;;;;5045696;28;20168;-61
2021/11/19 11:52:51;;;;;;;3.25;1.88;;;18.70;60.10;;;;;;5040959;28;20055;-61
2021/11/19 11:55:26;;;;;;;5.75;2.20;;;18.70;60.00;;;;;;5053664;28;20049;-64
2021/11/19 11:58:07;;;;;;;4.53;1.63;;;18.70;60.00;;;;;;5053119;28;20135;-59
2021/11/19 12:00:43;;;;;;;4.05;1.98;;;18.70;60.10;;;;;;5050416;28;20048;-62
2021/11/19 12:03:23;;;;;;;3.80;1.90;;;18.70;60.00;;;;;;5051352;28;20465;-60
2021/11/19 12:05:54;;;;;;;3.75;2.17;;;18.70;60.00;;;;;;5050949;28;20049;-61
2021/11/19 12:08:54;;;;;;;4.18;1.90;;;18.70;60.00;;;;;;5050746;28;20371;-63
2021/11/19 12:11:50;;;;;;;3.78;1.88;;;18.70;60.00;;;;;;5003682;28;20059;-62
2021/11/19 12:14:35;;;;;;;3.53;1.70;;;18.70;59.90;;;;;;5047988;28;20052;-62
2021/11/19 12:17:13;;;;;;;3.80;1.83;;;18.70;60.00;;;;;;5051193;28;20106;-63
2021/11/19 12:19:42;;;;;;;4.75;1.90;;;18.70;60.00;;;;;;5051052;28;20135;-62
2021/11/19 12:22:16;;;;;;;3.83;1.63;;;18.70;60.10;;;;;;5048577;28;20048;-62
2021/11/19 12:24:49;;;;;;;3.97;2.00;;;18.70;60.00;;;;;;5052288;28;20497;-62
2021/11/19 12:27:33;;;;;;;2.53;1.48;;;18.70;60.00;;;;;;5052046;28;20048;-62
2021/11/19 12:30:23;;;;;;;3.70;1.85;;;18.70;60.00;;;;;;5049461;28;20095;-63
2021/11/19 12:32:53;;;;;;;3.60;2.03;;;18.70;60.00;;;;;;5051616;28;20104;-62
2021/11/19 12:35:25;;;;;;;4.57;2.30;;;18.70;60.00;;;;;;5052615;28;20055;-62
2021/11/19 12:38:03;;;;;;;4.03;2.50;;;18.70;60.00;;;;;;5042096;28;20109;-63
2021/11/19 12:40:40;;;;;;;3.45;1.70;;;18.70;60.00;;;;;;5048853;28;20060;-60
2021/11/19 12:43:24;;;;;;;4.90;2.47;;;18.70;60.00;;;;;;5049349;28;20056;-64
2021/11/19 12:45:57;;;;;;;4.28;2.05;;;18.70;60.10;;;;;;5053093;28;20129;-63
2021/11/19 12:48:38;;;;;;;4.80;2.38;;;18.70;60.00;;;;;;5051825;28;20044;-62
2021/11/19 12:51:20;;;;;;;4.05;2.05;;;18.70;60.10;;;;;;5052328;28;20049;-61
2021/11/19 12:54:16;;;;;;;4.38;1.83;;;18.70;60.00;;;;;;5053375;28;20422;-62
2021/11/19 12:57:19;;;;;;;4.68;2.20;;;18.70;60.00;;;;;;5052677;28;20052;-61
2021/11/19 12:59:54;;;;;;;3.83;1.92;;;18.70;60.00;;;;;;5050050;28;20053;-63
2021/11/19 13:02:32;;;;;;;4.13;2.00;;;18.70;60.00;;;;;;5048666;28;20151;-65
2021/11/19 13:05:15;;;;;;;5.50;2.03;;;18.70;60.00;;;;;;5047605;28;20136;-62
2021/11/19 13:08:00;;;;;;;4.72;2.25;;;18.70;60.00;;;;;;5049852;28;20057;-62
2021/11/19 13:10:46;;;;;;;5.00;2.08;;;18.70;60.10;;;;;;5055051;28;20076;-65
2021/11/19 13:13:37;;;;;;;4.47;2.10;;;18.70;60.00;;;;;;5055170;28;20047;-62
2021/11/19 13:16:32;;;;;;;4.75;2.40;;;18.70;60.00;;;;;;5058066;28;20147;-63
2021/11/19 13:19:00;;;;;;;3.97;2.35;;;18.70;60.00;;;;;;5056533;28;20549;-62
2021/11/19 13:21:50;;;;;;;4.90;2.70;;;18.70;60.00;;;;;;5056769;28;20048;-62
2021/11/19 13:24:43;;;;;;;5.53;2.40;;;18.70;60.00;;;;;;5056872;28;20052;-61
2021/11/19 13:27:52;;;;;;;4.78;2.10;;;18.70;60.00;;;;;;5052235;28;20492;-62
2021/11/19 13:30:44;;;;;;;5.50;2.63;;;18.70;60.10;;;;;;5051322;28;20037;-64